createdAt,value
2022-10-16T00:00:00.287Z,1.4
2022-10-16T00:05:00.257Z,1.7
2022-10-16T00:10:00.323Z,4.0
2022-10-16T00:15:00.279Z,0.9
2022-10-16T00:20:00.292Z,0.2
2022-10-16T00:25:00.279Z,1.0
2022-10-16T00:30:00.711Z,1.3
2022-10-16T00:35:00.253Z,1.4
2022-10-16T00:40:00.446Z,0.5
2022-10-16T00:45:00.254Z,1.1
2022-10-16T00:50:00.271Z,2.4
2022-10-16T00:55:00.246Z,2.4
2022-10-16T01:00:00.305Z,1.8
2022-10-16T01:05:00.242Z,3.5
2022-10-16T01:10:00.253Z,3.9
2022-10-16T01:15:00.258Z,3.2
2022-10-16T01:20:00.276Z,2.9
2022-10-16T01:25:00.250Z,2.4
2022-10-16T01:30:00.273Z,2.9
2022-10-16T01:35:00.273Z,3.6
2022-10-16T01:40:00.460Z,4.2
2022-10-16T01:45:00.293Z,2.5
2022-10-16T01:50:00.271Z,0.8
2022-10-16T01:55:00.269Z,1.5
2022-10-16T02:00:00.288Z,1.3
2022-10-16T02:05:00.305Z,2.4
2022-10-16T02:10:00.267Z,2.8
2022-10-16T02:15:00.278Z,0.6
2022-10-16T02:20:00.262Z,2.1
2022-10-16T02:25:00.288Z,0.6
2022-10-16T02:30:00.286Z,1.5
2022-10-16T02:35:00.272Z,2.1
2022-10-16T02:40:00.258Z,3.2
2022-10-16T02:45:00.435Z,2.3
2022-10-16T02:50:00.264Z,3.2
2022-10-16T02:55:00.264Z,2.6
2022-10-16T03:00:00.277Z,2.6
2022-10-16T03:05:00.273Z,0.8
2022-10-16T03:10:00.260Z,1.0
2022-10-16T03:15:00.314Z,0.8
2022-10-16T03:20:00.267Z,0.8
2022-10-16T03:25:00.251Z,1.2
2022-10-16T03:30:00.271Z,0.1
2022-10-16T03:35:00.282Z,0.8
2022-10-16T03:40:00.253Z,0.4
2022-10-16T03:45:00.273Z,0.1
2022-10-16T03:50:00.380Z,1.1
2022-10-16T03:55:00.254Z,0.6
2022-10-16T04:00:00.303Z,0.5
2022-10-16T04:05:00.260Z,0.4
2022-10-16T04:10:00.319Z,1.0
2022-10-16T04:15:00.267Z,1.0
2022-10-16T04:20:00.355Z,0.8
2022-10-16T04:25:00.286Z,0.2
2022-10-16T04:30:00.307Z,0.4
2022-10-16T04:35:00.279Z,0.9
2022-10-16T04:40:00.262Z,0.6
2022-10-16T04:45:00.425Z,0.0
2022-10-16T04:50:00.306Z,0.1
2022-10-16T04:55:00.272Z,0.1
2022-10-16T05:00:00.324Z,0.0
2022-10-16T05:05:00.262Z,0.1
2022-10-16T05:10:00.264Z,0.0
2022-10-16T05:15:00.255Z,0.4
2022-10-16T05:20:00.296Z,0.1
2022-10-16T05:25:00.259Z,0.2
2022-10-16T05:30:00.293Z,0.2
2022-10-16T05:35:00.263Z,0.6
2022-10-16T05:40:00.259Z,0.2
2022-10-16T05:45:00.295Z,1.3
2022-10-16T05:50:00.263Z,0.9
2022-10-16T05:55:00.301Z,1.1
2022-10-16T06:00:00.290Z,0.3
2022-10-16T06:05:00.247Z,1.0
2022-10-16T06:10:00.263Z,0.5
2022-10-16T06:15:00.264Z,0.2
2022-10-16T06:20:00.278Z,0.6
2022-10-16T06:25:00.250Z,1.3
2022-10-16T06:30:00.268Z,0.0
2022-10-16T06:35:00.242Z,0.2
2022-10-16T06:40:00.263Z,0.7
2022-10-16T06:45:00.275Z,0.2
2022-10-16T06:50:00.273Z,0.0
2022-10-16T06:55:00.242Z,1.0
2022-10-16T07:00:00.298Z,0.0
2022-10-16T07:05:00.251Z,0.9
2022-10-16T07:10:00.258Z,0.3
2022-10-16T07:15:00.263Z,0.5
2022-10-16T07:20:00.293Z,1.8
2022-10-16T07:25:00.240Z,0.7
2022-10-16T07:30:06.667Z,0.3
2022-10-16T07:35:00.268Z,0.7
2022-10-16T07:40:00.285Z,0.2
2022-10-16T07:45:00.281Z,0.4
2022-10-16T07:50:00.305Z,0.7
2022-10-16T07:55:00.423Z,0.4
2022-10-16T08:00:00.305Z,0.6
2022-10-16T08:05:00.268Z,4.4
2022-10-16T08:10:00.261Z,1.2
2022-10-16T08:15:00.262Z,2.8
2022-10-16T08:20:00.317Z,1.2
2022-10-16T08:25:00.256Z,0.8
2022-10-16T08:30:00.294Z,2.4
2022-10-16T08:35:00.262Z,2.1
2022-10-16T08:40:00.262Z,3.4
2022-10-16T08:45:00.292Z,4.4
2022-10-16T08:50:00.329Z,1.5
2022-10-16T08:55:00.245Z,5.0
2022-10-16T09:00:00.296Z,3.2
2022-10-16T09:05:00.343Z,3.5
2022-10-16T09:10:00.322Z,4.6
2022-10-16T09:15:00.333Z,2.1
2022-10-16T09:20:00.416Z,4.1
2022-10-16T09:25:00.272Z,2.8
2022-10-16T09:30:00.522Z,3.8
2022-10-16T09:35:00.326Z,3.9
2022-10-16T09:40:07.579Z,2.0
2022-10-16T09:45:00.343Z,4.2
2022-10-16T09:50:00.328Z,5.5
2022-10-16T09:55:00.370Z,4.7
2022-10-16T10:00:00.267Z,5.0
2022-10-16T10:05:00.407Z,4.0
2022-10-16T10:10:00.266Z,5.3
2022-10-16T10:15:00.264Z,3.9
2022-10-16T10:20:00.368Z,4.8
2022-10-16T10:25:00.295Z,7.3
2022-10-16T10:30:00.268Z,9.2
2022-10-16T10:35:00.365Z,7.9
2022-10-16T10:40:00.254Z,9.1
2022-10-16T10:45:00.265Z,5.5
2022-10-16T10:50:00.297Z,7.9
2022-10-16T10:55:00.239Z,7.4
2022-10-16T11:00:00.305Z,8.1
2022-10-16T11:05:00.246Z,5.6
2022-10-16T11:10:00.276Z,8.3
2022-10-16T11:15:00.260Z,10.1
2022-10-16T11:20:00.258Z,7.5
2022-10-16T11:25:00.765Z,8.0
2022-10-16T11:30:00.256Z,6.3
2022-10-16T11:35:00.272Z,4.0
2022-10-16T11:40:00.248Z,3.3
2022-10-16T11:45:00.271Z,5.9
2022-10-16T11:50:00.248Z,9.4
2022-10-16T11:55:00.270Z,5.7
2022-10-16T12:00:00.303Z,6.8
2022-10-16T12:05:00.242Z,8.7
2022-10-16T12:10:00.259Z,6.3
2022-10-16T12:15:17.708Z,5.7
2022-10-16T12:20:00.647Z,9.4
2022-10-16T12:25:00.271Z,5.5
2022-10-16T12:30:00.291Z,5.2
2022-10-16T12:35:00.273Z,7.1
2022-10-16T12:40:00.549Z,6.1
2022-10-16T12:45:00.273Z,6.4
2022-10-16T12:50:10.435Z,8.5
2022-10-16T12:55:00.269Z,3.2
2022-10-16T13:00:00.330Z,4.9
2022-10-16T13:05:00.241Z,3.2
2022-10-16T13:10:00.275Z,7.2
2022-10-16T13:15:00.285Z,3.8
2022-10-16T13:20:00.263Z,8.9
2022-10-16T13:25:00.443Z,4.8
2022-10-16T13:30:00.285Z,6.7
2022-10-16T13:35:00.263Z,7.3
2022-10-16T13:40:00.256Z,9.0
2022-10-16T13:45:00.272Z,8.3
2022-10-16T13:50:00.248Z,7.9
2022-10-16T13:55:02.693Z,7.1
2022-10-16T14:00:00.278Z,7.8
2022-10-16T14:05:00.273Z,4.9
2022-10-16T14:10:00.352Z,3.9
2022-10-16T14:15:00.313Z,4.9
2022-10-16T14:20:05.613Z,4.8
2022-10-16T14:25:00.247Z,3.9
2022-10-16T14:30:00.306Z,5.7
2022-10-16T14:35:00.240Z,5.9
2022-10-16T14:40:00.257Z,5.3
2022-10-16T14:45:00.255Z,4.4
2022-10-16T14:50:00.299Z,7.0
2022-10-16T14:55:00.250Z,6.2
2022-10-16T15:00:00.309Z,3.5
2022-10-16T15:10:00.268Z,3.5
2022-10-16T15:15:00.279Z,3.2
2022-10-16T15:20:00.280Z,2.9
2022-10-16T15:25:00.254Z,3.4
2022-10-16T15:30:00.379Z,1.4
2022-10-16T15:35:00.249Z,1.5
2022-10-16T15:40:00.337Z,1.3
2022-10-16T15:45:00.294Z,0.7
2022-10-16T15:50:00.493Z,0.8
2022-10-16T15:55:00.370Z,0.6
2022-10-16T16:00:03.062Z,1.5
2022-10-16T16:05:00.251Z,1.3
2022-10-16T16:10:00.317Z,0.6
2022-10-16T16:15:05.734Z,0.0
2022-10-16T16:20:00.257Z,0.0
2022-10-16T16:25:00.331Z,0.0
2022-10-16T16:30:00.291Z,0.0
2022-10-16T16:35:00.263Z,0.0
2022-10-16T16:40:00.319Z,0.1
2022-10-16T16:45:00.277Z,0.0
2022-10-16T16:50:00.289Z,0.1
2022-10-16T16:55:00.345Z,0.0
2022-10-16T17:00:00.291Z,0.0
2022-10-16T17:05:00.250Z,0.0
2022-10-16T17:10:00.259Z,0.2
2022-10-16T17:15:00.269Z,0.1
2022-10-16T17:20:00.289Z,0.0
2022-10-16T17:25:00.262Z,0.0
2022-10-16T17:30:00.294Z,0.0
2022-10-16T17:35:00.280Z,0.0
2022-10-16T17:40:00.586Z,0.0
2022-10-16T17:45:00.288Z,0.0
2022-10-16T17:50:00.333Z,0.0
2022-10-16T17:55:00.249Z,0.0
2022-10-16T18:00:00.294Z,0.0
2022-10-16T18:05:00.260Z,0.0
2022-10-16T18:10:11.773Z,0.0
2022-10-16T18:15:00.269Z,0.0
2022-10-16T18:20:00.683Z,0.0
2022-10-16T18:25:00.247Z,0.0
2022-10-16T18:30:00.276Z,0.0
2022-10-16T18:35:00.394Z,0.0
2022-10-16T18:40:00.279Z,0.0
2022-10-16T18:45:00.301Z,0.0
2022-10-16T18:50:00.300Z,0.0
2022-10-16T18:55:00.263Z,0.0
2022-10-16T19:00:00.305Z,0.0
2022-10-16T19:05:06.316Z,0.0
2022-10-16T19:10:00.277Z,0.0
2022-10-16T19:15:00.405Z,0.0
2022-10-16T19:20:00.277Z,0.0
2022-10-16T19:25:00.270Z,0.0
2022-10-16T19:30:00.411Z,0.0
2022-10-16T19:35:00.277Z,0.0
2022-10-16T19:40:00.272Z,0.0
2022-10-16T19:45:00.250Z,0.0
2022-10-16T19:50:00.607Z,0.0
2022-10-16T19:55:00.251Z,0.0
2022-10-16T20:00:00.270Z,0.0
2022-10-16T20:05:00.237Z,0.0
2022-10-16T20:10:00.312Z,0.0
2022-10-16T20:15:00.268Z,0.0
2022-10-16T20:20:00.316Z,0.0
2022-10-16T20:25:00.262Z,0.0
2022-10-16T20:30:00.263Z,0.0
2022-10-16T20:35:05.590Z,0.0
2022-10-16T20:40:00.291Z,0.0
2022-10-16T20:45:00.264Z,0.0
2022-10-16T20:50:00.277Z,0.0
2022-10-16T20:55:00.253Z,0.0
2022-10-16T21:00:00.287Z,0.0
2022-10-16T21:05:00.343Z,0.0
2022-10-16T21:10:00.273Z,0.0
2022-10-16T21:15:14.671Z,0.0
2022-10-16T21:20:00.347Z,0.0
2022-10-16T21:25:00.236Z,0.0
2022-10-16T21:30:00.382Z,0.0
2022-10-16T21:35:00.395Z,0.0
2022-10-16T21:40:00.305Z,0.0
2022-10-16T21:45:00.271Z,0.0
2022-10-16T21:50:00.426Z,0.0
2022-10-16T21:55:00.255Z,0.0
2022-10-16T22:00:04.347Z,0.0
2022-10-16T22:05:00.303Z,0.0
2022-10-16T22:10:00.291Z,0.0
2022-10-16T22:15:00.316Z,0.0
2022-10-16T22:20:00.934Z,0.0
2022-10-16T22:25:00.267Z,0.0
2022-10-16T22:30:00.303Z,0.0
2022-10-16T22:35:00.289Z,0.0
2022-10-16T22:40:01.346Z,0.0
2022-10-16T22:45:00.310Z,0.0
2022-10-16T22:50:00.334Z,0.0
2022-10-16T22:55:00.290Z,0.0
2022-10-16T23:00:00.302Z,0.0
2022-10-16T23:05:00.352Z,0.0
2022-10-16T23:15:00.291Z,0.0
2022-10-16T23:20:00.307Z,0.0
2022-10-16T23:25:00.262Z,0.0
2022-10-16T23:30:00.285Z,0.0
2022-10-16T23:35:00.269Z,0.0
2022-10-16T23:40:00.259Z,0.0
2022-10-16T23:45:00.306Z,0.0
2022-10-16T23:50:00.316Z,0.0
2022-10-16T23:55:00.257Z,0.0
